sensor_id;sensor_type;location;lat;lon;timestamp;pressure;altitude;pressure_sealevel;temperature;humidity
64644;BME280;51056;50.330;7.914;2023-04-22T00:06:55;100005.94;;;9.71;87.82
64644;BME280;51056;50.330;7.914;2023-04-22T00:09:59;100011.31;;;9.68;88.11
64644;BME280;51056;50.330;7.914;2023-04-22T00:13:02;100014.94;;;9.66;88.06
64644;BME280;51056;50.330;7.914;2023-04-22T00:16:05;100007.09;;;9.66;88.28
64644;BME280;51056;50.330;7.914;2023-04-22T00:19:08;100003.94;;;9.61;88.42
64644;BME280;51056;50.330;7.914;2023-04-22T00:22:11;100002.50;;;9.55;88.93
64644;BME280;51056;50.330;7.914;2023-04-22T00:25:15;100009.16;;;9.61;88.70
64644;BME280;51056;50.330;7.914;2023-04-22T00:28:18;100011.94;;;9.58;88.62
64644;BME280;51056;50.330;7.914;2023-04-22T00:31:21;100003.06;;;9.60;88.53
64644;BME280;51056;50.330;7.914;2023-04-22T00:34:23;100011.78;;;9.61;88.45
64644;BME280;51056;50.330;7.914;2023-04-22T00:37:26;100009.06;;;9.62;88.42
64644;BME280;51056;50.330;7.914;2023-04-22T00:40:29;100016.66;;;9.67;88.01
64644;BME280;51056;50.330;7.914;2023-04-22T00:43:32;100013.25;;;9.65;87.25
64644;BME280;51056;50.330;7.914;2023-04-22T00:46:36;100009.16;;;9.61;87.29
64644;BME280;51056;50.330;7.914;2023-04-22T00:49:39;100010.16;;;9.58;87.37
64644;BME280;51056;50.330;7.914;2023-04-22T00:52:42;100015.28;;;9.60;87.36
64644;BME280;51056;50.330;7.914;2023-04-22T00:55:45;100014.38;;;9.61;88.15
64644;BME280;51056;50.330;7.914;2023-04-22T00:58:49;100013.00;;;9.53;88.90
64644;BME280;51056;50.330;7.914;2023-04-22T01:01:52;100007.72;;;9.55;88.88
64644;BME280;51056;50.330;7.914;2023-04-22T01:04:55;100004.66;;;9.63;88.56
64644;BME280;51056;50.330;7.914;2023-04-22T01:07:58;100006.38;;;9.64;88.11
64644;BME280;51056;50.330;7.914;2023-04-22T01:11:02;100006.72;;;9.58;88.40
64644;BME280;51056;50.330;7.914;2023-04-22T01:14:05;100009.31;;;9.58;88.37
64644;BME280;51056;50.330;7.914;2023-04-22T01:17:23;100010.22;;;9.57;88.07
64644;BME280;51056;50.330;7.914;2023-04-22T01:20:27;100019.00;;;9.55;88.20
64644;BME280;51056;50.330;7.914;2023-04-22T01:23:33;100011.34;;;9.52;88.63
64644;BME280;51056;50.330;7.914;2023-04-22T01:26:36;100011.06;;;9.57;88.48
64644;BME280;51056;50.330;7.914;2023-04-22T01:29:39;100006.78;;;9.56;88.10
64644;BME280;51056;50.330;7.914;2023-04-22T01:32:41;100007.78;;;9.53;87.75
64644;BME280;51056;50.330;7.914;2023-04-22T01:35:45;100010.56;;;9.50;87.93
64644;BME280;51056;50.330;7.914;2023-04-22T01:38:47;100011.44;;;9.51;87.66
64644;BME280;51056;50.330;7.914;2023-04-22T01:41:51;100010.09;;;9.44;87.63
64644;BME280;51056;50.330;7.914;2023-04-22T01:44:55;100011.63;;;9.48;87.74
64644;BME280;51056;50.330;7.914;2023-04-22T01:47:58;100011.84;;;9.43;87.81
64644;BME280;51056;50.330;7.914;2023-04-22T01:51:01;100006.63;;;9.43;87.51
64644;BME280;51056;50.330;7.914;2023-04-22T01:54:05;100012.78;;;9.42;87.50
64644;BME280;51056;50.330;7.914;2023-04-22T01:57:09;100005.97;;;9.40;87.70
64644;BME280;51056;50.330;7.914;2023-04-22T02:00:13;100003.47;;;9.38;87.74
64644;BME280;51056;50.330;7.914;2023-04-22T02:03:16;100002.53;;;9.39;87.60
64644;BME280;51056;50.330;7.914;2023-04-22T02:06:19;100006.25;;;9.35;87.66
64644;BME280;51056;50.330;7.914;2023-04-22T02:09:22;99996.63;;;9.36;87.33
64644;BME280;51056;50.330;7.914;2023-04-22T02:12:25;100003.53;;;9.37;86.94
64644;BME280;51056;50.330;7.914;2023-04-22T02:15:28;99996.31;;;9.26;86.78
64644;BME280;51056;50.330;7.914;2023-04-22T02:18:32;100001.84;;;9.20;86.75
64644;BME280;51056;50.330;7.914;2023-04-22T02:21:35;99994.69;;;9.23;86.60
64644;BME280;51056;50.330;7.914;2023-04-22T02:24:39;99997.47;;;9.20;86.74
64644;BME280;51056;50.330;7.914;2023-04-22T02:27:42;99996.97;;;9.14;87.04
64644;BME280;51056;50.330;7.914;2023-04-22T02:30:46;99995.31;;;9.13;87.50
64644;BME280;51056;50.330;7.914;2023-04-22T02:33:49;99992.53;;;9.16;87.70
64644;BME280;51056;50.330;7.914;2023-04-22T02:36:52;99997.53;;;9.19;87.58
64644;BME280;51056;50.330;7.914;2023-04-22T02:39:55;99987.09;;;9.19;87.49
64644;BME280;51056;50.330;7.914;2023-04-22T02:42:59;99997.53;;;9.19;87.34
64644;BME280;51056;50.330;7.914;2023-04-22T02:46:04;100001.19;;;9.16;87.34
64644;BME280;51056;50.330;7.914;2023-04-22T02:49:07;100002.03;;;9.17;87.46
64644;BME280;51056;50.330;7.914;2023-04-22T02:52:11;99993.44;;;9.15;87.52
64644;BME280;51056;50.330;7.914;2023-04-22T02:55:14;99988.22;;;9.15;87.36
64644;BME280;51056;50.330;7.914;2023-04-22T02:58:17;99997.13;;;9.11;87.93
64644;BME280;51056;50.330;7.914;2023-04-22T03:01:20;99992.75;;;9.11;87.88
64644;BME280;51056;50.330;7.914;2023-04-22T03:04:23;99994.59;;;9.09;87.59
64644;BME280;51056;50.330;7.914;2023-04-22T03:07:27;99997.31;;;9.07;87.63
64644;BME280;51056;50.330;7.914;2023-04-22T03:10:30;99993.34;;;9.00;88.11
64644;BME280;51056;50.330;7.914;2023-04-22T03:13:34;99984.75;;;8.98;88.29
64644;BME280;51056;50.330;7.914;2023-04-22T03:16:37;99991.50;;;9.02;87.99
64644;BME280;51056;50.330;7.914;2023-04-22T03:19:41;99985.53;;;9.00;88.08
64644;BME280;51056;50.330;7.914;2023-04-22T03:22:45;99991.59;;;9.01;87.96
64644;BME280;51056;50.330;7.914;2023-04-22T03:25:49;99988.22;;;8.99;88.13
64644;BME280;51056;50.330;7.914;2023-04-22T03:28:54;99994.19;;;9.01;87.65
64644;BME280;51056;50.330;7.914;2023-04-22T03:31:57;99993.34;;;9.00;87.41
64644;BME280;51056;50.330;7.914;2023-04-22T03:35:00;99999.81;;;8.93;87.66
64644;BME280;51056;50.330;7.914;2023-04-22T03:38:04;100001.66;;;8.91;87.89
64644;BME280;51056;50.330;7.914;2023-04-22T03:41:10;100001.75;;;8.90;88.04
64644;BME280;51056;50.330;7.914;2023-04-22T03:44:17;99998.47;;;8.86;88.54
64644;BME280;51056;50.330;7.914;2023-04-22T03:47:21;99999.28;;;8.87;88.36
64644;BME280;51056;50.330;7.914;2023-04-22T03:50:30;99998.38;;;8.88;88.08
64644;BME280;51056;50.330;7.914;2023-04-22T03:53:34;99992.56;;;8.82;88.69
64644;BME280;51056;50.330;7.914;2023-04-22T03:56:39;99993.56;;;8.80;88.65
64644;BME280;51056;50.330;7.914;2023-04-22T03:59:43;99983.06;;;8.81;88.41
64644;BME280;51056;50.330;7.914;2023-04-22T04:02:48;99981.91;;;8.87;88.06
64644;BME280;51056;50.330;7.914;2023-04-22T04:05:53;99980.31;;;8.84;88.42
64644;BME280;51056;50.330;7.914;2023-04-22T04:08:58;99976.09;;;8.82;88.88
64644;BME280;51056;50.330;7.914;2023-04-22T04:12:01;99979.47;;;8.84;88.87
64644;BME280;51056;50.330;7.914;2023-04-22T04:15:09;99986.34;;;8.85;88.75
64644;BME280;51056;50.330;7.914;2023-04-22T04:18:13;99984.84;;;8.81;89.04
64644;BME280;51056;50.330;7.914;2023-04-22T04:21:17;99979.19;;;8.73;88.89
64644;BME280;51056;50.330;7.914;2023-04-22T04:24:24;99988.69;;;8.74;89.19
64644;BME280;51056;50.330;7.914;2023-04-22T04:27:33;99972.28;;;8.72;89.08
64644;BME280;51056;50.330;7.914;2023-04-22T04:30:37;99974.06;;;8.71;89.23
64644;BME280;51056;50.330;7.914;2023-04-22T04:33:40;99972.13;;;8.75;88.92
64644;BME280;51056;50.330;7.914;2023-04-22T04:36:43;99971.38;;;8.73;89.14
64644;BME280;51056;50.330;7.914;2023-04-22T04:43:44;99964.22;;;8.76;88.78
64644;BME280;51056;50.330;7.914;2023-04-22T04:46:58;99964.31;;;8.75;88.32
64644;BME280;51056;50.330;7.914;2023-04-22T04:50:01;99962.63;;;8.74;87.95
64644;BME280;51056;50.330;7.914;2023-04-22T04:53:09;99952.19;;;8.74;88.05
64644;BME280;51056;50.330;7.914;2023-04-22T04:56:16;99966.31;;;8.70;88.13
64644;BME280;51056;50.330;7.914;2023-04-22T05:02:50;99966.47;;;8.67;88.24
64644;BME280;51056;50.330;7.914;2023-04-22T05:05:55;99965.63;;;8.66;88.28
64644;BME280;51056;50.330;7.914;2023-04-22T05:09:09;99959.91;;;8.59;88.73
64644;BME280;51056;50.330;7.914;2023-04-22T05:12:28;99966.81;;;8.60;89.06
64644;BME280;51056;50.330;7.914;2023-04-22T05:15:44;99979.44;;;8.68;88.46
64644;BME280;51056;50.330;7.914;2023-04-22T05:18:58;99982.13;;;8.67;88.81
64644;BME280;51056;50.330;7.914;2023-04-22T05:22:01;99997.06;;;8.63;88.71
64644;BME280;51056;50.330;7.914;2023-04-22T05:25:06;100005.00;;;8.61;88.96
64644;BME280;51056;50.330;7.914;2023-04-22T05:28:09;100000.53;;;8.64;89.03
64644;BME280;51056;50.330;7.914;2023-04-22T05:31:20;99990.88;;;8.66;88.92
64644;BME280;51056;50.330;7.914;2023-04-22T05:34:24;100001.88;;;8.71;89.05
64644;BME280;51056;50.330;7.914;2023-04-22T05:37:30;100009.00;;;8.67;89.24
64644;BME280;51056;50.330;7.914;2023-04-22T05:40:33;100001.81;;;8.72;89.28
64644;BME280;51056;50.330;7.914;2023-04-22T05:43:38;100005.69;;;8.81;89.13
64644;BME280;51056;50.330;7.914;2023-04-22T05:46:49;100013.13;;;9.04;89.21
64644;BME280;51056;50.330;7.914;2023-04-22T05:49:53;100004.03;;;9.12;88.10
64644;BME280;51056;50.330;7.914;2023-04-22T05:53:07;100003.78;;;9.16;88.02
64644;BME280;51056;50.330;7.914;2023-04-22T05:56:11;99989.47;;;9.23;88.36
64644;BME280;51056;50.330;7.914;2023-04-22T05:59:14;99993.44;;;9.30;88.37
64644;BME280;51056;50.330;7.914;2023-04-22T06:02:17;99998.41;;;9.35;88.27
64644;BME280;51056;50.330;7.914;2023-04-22T06:05:21;99990.75;;;9.32;87.47
64644;BME280;51056;50.330;7.914;2023-04-22T06:08:23;99990.41;;;9.38;87.81
64644;BME280;51056;50.330;7.914;2023-04-22T06:11:27;99988.38;;;9.43;87.33
64644;BME280;51056;50.330;7.914;2023-04-22T06:14:30;99980.03;;;9.52;87.24
64644;BME280;51056;50.330;7.914;2023-04-22T06:17:33;99975.47;;;9.56;86.81
64644;BME280;51056;50.330;7.914;2023-04-22T06:20:36;99981.34;;;9.60;86.74
64644;BME280;51056;50.330;7.914;2023-04-22T06:23:39;99980.44;;;9.61;87.02
64644;BME280;51056;50.330;7.914;2023-04-22T06:26:43;99978.75;;;9.60;87.35
64644;BME280;51056;50.330;7.914;2023-04-22T06:29:46;99966.47;;;9.62;87.79
64644;BME280;51056;50.330;7.914;2023-04-22T06:32:52;99968.88;;;9.65;87.74
64644;BME280;51056;50.330;7.914;2023-04-22T06:35:57;99967.94;;;9.66;88.26
64644;BME280;51056;50.330;7.914;2023-04-22T06:39:03;99968.13;;;9.63;88.43
64644;BME280;51056;50.330;7.914;2023-04-22T06:42:25;99964.44;;;9.67;89.09
64644;BME280;51056;50.330;7.914;2023-04-22T06:45:55;99955.78;;;9.81;89.71
64644;BME280;51056;50.330;7.914;2023-04-22T06:49:08;99957.13;;;9.88;89.40
64644;BME280;51056;50.330;7.914;2023-04-22T06:52:40;99955.63;;;9.98;89.47
64644;BME280;51056;50.330;7.914;2023-04-22T06:55:43;99960.78;;;9.99;90.21
64644;BME280;51056;50.330;7.914;2023-04-22T06:58:47;99948.84;;;10.10;90.49
64644;BME280;51056;50.330;7.914;2023-04-22T07:01:50;99958.75;;;10.19;91.16
64644;BME280;51056;50.330;7.914;2023-04-22T07:04:53;99955.44;;;10.31;91.04
64644;BME280;51056;50.330;7.914;2023-04-22T07:07:56;99952.00;;;10.45;91.34
64644;BME280;51056;50.330;7.914;2023-04-22T07:11:01;99956.84;;;10.51;91.33
64644;BME280;51056;50.330;7.914;2023-04-22T07:14:11;99943.22;;;10.60;90.49
64644;BME280;51056;50.330;7.914;2023-04-22T07:17:14;99944.31;;;10.70;90.16
64644;BME280;51056;50.330;7.914;2023-04-22T07:20:17;99945.44;;;10.81;90.17
64644;BME280;51056;50.330;7.914;2023-04-22T07:23:20;99945.16;;;10.85;90.40
64644;BME280;51056;50.330;7.914;2023-04-22T07:26:23;99936.16;;;10.89;89.73
64644;BME280;51056;50.330;7.914;2023-04-22T07:29:26;99925.84;;;11.01;89.23
64644;BME280;51056;50.330;7.914;2023-04-22T07:32:30;99934.91;;;11.09;89.70
64644;BME280;51056;50.330;7.914;2023-04-22T07:35:33;99930.94;;;11.16;89.52
64644;BME280;51056;50.330;7.914;2023-04-22T07:38:36;99931.00;;;11.29;90.14
64644;BME280;51056;50.330;7.914;2023-04-22T07:41:39;99926.56;;;11.44;90.06
64644;BME280;51056;50.330;7.914;2023-04-22T07:44:42;99925.84;;;11.55;90.12
64644;BME280;51056;50.330;7.914;2023-04-22T07:47:45;99922.41;;;11.67;90.46
64644;BME280;51056;50.330;7.914;2023-04-22T07:50:49;99916.47;;;11.78;89.92
64644;BME280;51056;50.330;7.914;2023-04-22T07:53:52;99922.69;;;11.90;90.55
64644;BME280;51056;50.330;7.914;2023-04-22T07:56:55;99914.97;;;12.01;90.16
64644;BME280;51056;50.330;7.914;2023-04-22T08:00:00;99909.09;;;12.10;90.20
64644;BME280;51056;50.330;7.914;2023-04-22T08:03:03;99902.81;;;12.25;90.74
64644;BME280;51056;50.330;7.914;2023-04-22T08:06:06;99901.72;;;12.41;90.23
64644;BME280;51056;50.330;7.914;2023-04-22T08:09:10;99895.63;;;12.53;89.85
64644;BME280;51056;50.330;7.914;2023-04-22T08:12:13;99893.81;;;12.66;89.59
64644;BME280;51056;50.330;7.914;2023-04-22T08:15:16;99888.41;;;12.80;89.61
64644;BME280;51056;50.330;7.914;2023-04-22T08:18:20;99891.50;;;12.98;89.69
64644;BME280;51056;50.330;7.914;2023-04-22T08:21:23;99884.31;;;13.13;90.17
64644;BME280;51056;50.330;7.914;2023-04-22T08:24:26;99875.44;;;13.27;89.38
64644;BME280;51056;50.330;7.914;2023-04-22T08:27:30;99875.59;;;13.37;88.53
64644;BME280;51056;50.330;7.914;2023-04-22T08:30:33;99873.00;;;13.48;88.23
64644;BME280;51056;50.330;7.914;2023-04-22T08:33:39;99868.75;;;13.58;87.57
64644;BME280;51056;50.330;7.914;2023-04-22T08:36:43;99869.25;;;13.75;88.96
64644;BME280;51056;50.330;7.914;2023-04-22T08:39:46;99867.25;;;13.89;87.51
64644;BME280;51056;50.330;7.914;2023-04-22T08:42:49;99868.47;;;13.96;86.94
64644;BME280;51056;50.330;7.914;2023-04-22T08:45:54;99858.78;;;14.08;87.63
64644;BME280;51056;50.330;7.914;2023-04-22T08:48:58;99855.22;;;14.21;84.49
64644;BME280;51056;50.330;7.914;2023-04-22T08:52:05;99858.06;;;14.29;83.75
64644;BME280;51056;50.330;7.914;2023-04-22T08:55:08;99858.53;;;14.45;71.50
64644;BME280;51056;50.330;7.914;2023-04-22T08:58:12;99847.41;;;14.64;65.52
64644;BME280;51056;50.330;7.914;2023-04-22T09:01:15;99848.97;;;14.78;65.55
64644;BME280;51056;50.330;7.914;2023-04-22T09:04:20;99839.84;;;15.14;62.25
64644;BME280;51056;50.330;7.914;2023-04-22T09:07:26;99840.22;;;15.42;59.00
64644;BME280;51056;50.330;7.914;2023-04-22T09:10:29;99839.63;;;15.59;59.38
64644;BME280;51056;50.330;7.914;2023-04-22T09:13:33;99840.91;;;15.65;60.42
64644;BME280;51056;50.330;7.914;2023-04-22T09:16:40;99824.38;;;15.74;59.75
64644;BME280;51056;50.330;7.914;2023-04-22T09:19:55;99826.06;;;15.85;58.25
64644;BME280;51056;50.330;7.914;2023-04-22T09:23:01;99828.06;;;15.92;56.22
64644;BME280;51056;50.330;7.914;2023-04-22T09:26:06;99831.44;;;16.04;55.80
64644;BME280;51056;50.330;7.914;2023-04-22T09:29:13;99821.38;;;16.19;55.49
64644;BME280;51056;50.330;7.914;2023-04-22T09:32:17;99835.03;;;16.34;54.40
64644;BME280;51056;50.330;7.914;2023-04-22T09:35:32;99847.84;;;16.48;52.79
64644;BME280;51056;50.330;7.914;2023-04-22T09:38:35;99825.91;;;16.47;52.90
64644;BME280;51056;50.330;7.914;2023-04-22T09:41:39;99831.22;;;16.57;52.56
64644;BME280;51056;50.330;7.914;2023-04-22T09:44:49;99829.84;;;16.63;51.70
64644;BME280;51056;50.330;7.914;2023-04-22T09:47:56;99818.75;;;16.69;51.09
64644;BME280;51056;50.330;7.914;2023-04-22T09:51:01;99826.44;;;16.82;51.13
64644;BME280;51056;50.330;7.914;2023-04-22T09:54:16;99831.00;;;16.89;51.97
64644;BME280;51056;50.330;7.914;2023-04-22T09:57:20;99822.28;;;16.99;50.50
64644;BME280;51056;50.330;7.914;2023-04-22T10:00:26;99825.47;;;17.12;50.93
64644;BME280;51056;50.330;7.914;2023-04-22T10:03:29;99820.06;;;17.23;50.95
64644;BME280;51056;50.330;7.914;2023-04-22T10:06:33;99813.78;;;17.24;49.22
64644;BME280;51056;50.330;7.914;2023-04-22T10:09:37;99812.25;;;17.31;49.89
64644;BME280;51056;50.330;7.914;2023-04-22T10:12:40;99792.63;;;17.34;48.56
64644;BME280;51056;50.330;7.914;2023-04-22T10:15:48;99794.28;;;17.44;49.68
64644;BME280;51056;50.330;7.914;2023-04-22T10:18:53;99795.06;;;17.55;50.17
64644;BME280;51056;50.330;7.914;2023-04-22T10:21:59;99795.50;;;17.60;48.58
64644;BME280;51056;50.330;7.914;2023-04-22T10:25:02;99797.84;;;17.63;48.31
64644;BME280;51056;50.330;7.914;2023-04-22T10:28:09;99781.13;;;17.72;48.16
64644;BME280;51056;50.330;7.914;2023-04-22T10:31:19;99783.53;;;17.65;47.36
64644;BME280;51056;50.330;7.914;2023-04-22T10:34:23;99787.84;;;17.57;47.33
64644;BME280;51056;50.330;7.914;2023-04-22T10:37:26;99784.81;;;17.52;48.08
64644;BME280;51056;50.330;7.914;2023-04-22T10:40:30;99784.66;;;17.53;47.19
64644;BME280;51056;50.330;7.914;2023-04-22T10:43:41;99784.50;;;17.64;46.70
64644;BME280;51056;50.330;7.914;2023-04-22T11:03:27;99780.59;;;18.33;44.89
64644;BME280;51056;50.330;7.914;2023-04-22T11:06:30;99782.88;;;18.28;44.75
64644;BME280;51056;50.330;7.914;2023-04-22T11:09:38;99773.91;;;18.39;45.48
64644;BME280;51056;50.330;7.914;2023-04-22T11:12:42;99772.13;;;18.57;45.48
64644;BME280;51056;50.330;7.914;2023-04-22T11:15:46;99779.00;;;18.68;46.40
64644;BME280;51056;50.330;7.914;2023-04-22T11:18:50;99779.41;;;18.73;45.44
64644;BME280;51056;50.330;7.914;2023-04-22T11:21:53;99777.44;;;18.75;45.56
64644;BME280;51056;50.330;7.914;2023-04-22T11:24:58;99780.31;;;18.82;45.90
64644;BME280;51056;50.330;7.914;2023-04-22T11:28:01;99768.34;;;18.78;45.90
64644;BME280;51056;50.330;7.914;2023-04-22T11:31:06;99762.16;;;18.87;46.21
64644;BME280;51056;50.330;7.914;2023-04-22T11:34:09;99751.56;;;18.87;45.89
64644;BME280;51056;50.330;7.914;2023-04-22T11:37:13;99754.94;;;18.97;46.08
64644;BME280;51056;50.330;7.914;2023-04-22T11:40:20;99750.66;;;18.96;46.57
64644;BME280;51056;50.330;7.914;2023-04-22T11:43:26;99753.34;;;19.04;46.69
64644;BME280;51056;50.330;7.914;2023-04-22T11:46:30;99750.88;;;19.03;47.15
64644;BME280;51056;50.330;7.914;2023-04-22T11:49:41;99743.66;;;19.13;47.22
64644;BME280;51056;50.330;7.914;2023-04-22T11:55:48;99746.72;;;19.26;47.39
64644;BME280;51056;50.330;7.914;2023-04-22T11:58:55;99753.41;;;19.31;46.73
64644;BME280;51056;50.330;7.914;2023-04-22T12:01:58;99757.22;;;19.36;46.58
64644;BME280;51056;50.330;7.914;2023-04-22T12:05:03;99753.50;;;19.47;46.13
64644;BME280;51056;50.330;7.914;2023-04-22T12:08:16;99744.81;;;19.63;46.06
64644;BME280;51056;50.330;7.914;2023-04-22T12:11:21;99752.06;;;19.79;46.49
64644;BME280;51056;50.330;7.914;2023-04-22T12:14:31;99728.91;;;19.97;45.98
64644;BME280;51056;50.330;7.914;2023-04-22T12:17:34;99735.56;;;20.01;45.36
64644;BME280;51056;50.330;7.914;2023-04-22T12:20:41;99736.63;;;20.25;44.91
64644;BME280;51056;50.330;7.914;2023-04-22T12:23:54;99739.66;;;20.30;44.78
64644;BME280;51056;50.330;7.914;2023-04-22T12:26:57;99746.97;;;20.36;45.44
64644;BME280;51056;50.330;7.914;2023-04-22T12:30:01;99743.44;;;20.27;45.13
64644;BME280;51056;50.330;7.914;2023-04-22T12:33:05;99749.34;;;20.13;45.32
64644;BME280;51056;50.330;7.914;2023-04-22T12:36:08;99747.56;;;20.13;45.43
64644;BME280;51056;50.330;7.914;2023-04-22T12:39:11;99739.69;;;20.04;45.77
64644;BME280;51056;50.330;7.914;2023-04-22T12:42:14;99738.31;;;19.83;45.74
64644;BME280;51056;50.330;7.914;2023-04-22T12:45:17;99741.03;;;19.65;45.41
64644;BME280;51056;50.330;7.914;2023-04-22T12:48:20;99744.66;;;19.64;46.49
64644;BME280;51056;50.330;7.914;2023-04-22T12:51:23;99740.06;;;19.48;46.31
64644;BME280;51056;50.330;7.914;2023-04-22T12:54:26;99747.94;;;19.32;45.87
64644;BME280;51056;50.330;7.914;2023-04-22T12:57:29;99748.19;;;19.21;44.82
64644;BME280;51056;50.330;7.914;2023-04-22T13:00:32;99750.78;;;19.13;45.25
64644;BME280;51056;50.330;7.914;2023-04-22T13:03:35;99743.31;;;19.08;44.41
64644;BME280;51056;50.330;7.914;2023-04-22T13:06:38;99740.09;;;19.04;44.71
64644;BME280;51056;50.330;7.914;2023-04-22T13:09:43;99739.28;;;19.04;43.83
64644;BME280;51056;50.330;7.914;2023-04-22T13:12:46;99741.91;;;19.04;44.52
64644;BME280;51056;50.330;7.914;2023-04-22T13:15:52;99745.88;;;19.00;44.43
64644;BME280;51056;50.330;7.914;2023-04-22T13:18:56;99748.09;;;18.87;44.48
64644;BME280;51056;50.330;7.914;2023-04-22T13:21:59;99748.22;;;18.85;44.70
64644;BME280;51056;50.330;7.914;2023-04-22T13:25:05;99751.34;;;18.80;45.12
64644;BME280;51056;50.330;7.914;2023-04-22T13:28:08;99744.00;;;18.74;45.22
64644;BME280;51056;50.330;7.914;2023-04-22T13:31:13;99749.44;;;18.73;45.61
64644;BME280;51056;50.330;7.914;2023-04-22T13:34:17;99750.16;;;18.65;45.17
64644;BME280;51056;50.330;7.914;2023-04-22T13:37:21;99746.16;;;18.61;48.15
64644;BME280;51056;50.330;7.914;2023-04-22T13:40:24;99748.28;;;18.57;47.80
64644;BME280;51056;50.330;7.914;2023-04-22T13:43:29;99748.72;;;18.53;46.80
64644;BME280;51056;50.330;7.914;2023-04-22T13:46:32;99754.31;;;18.50;46.94
64644;BME280;51056;50.330;7.914;2023-04-22T13:49:36;99745.31;;;18.43;47.06
64644;BME280;51056;50.330;7.914;2023-04-22T13:52:39;99747.97;;;18.43;46.38
64644;BME280;51056;50.330;7.914;2023-04-22T13:55:43;99762.72;;;18.45;48.87
64644;BME280;51056;50.330;7.914;2023-04-22T13:58:46;99759.38;;;18.43;49.55
64644;BME280;51056;50.330;7.914;2023-04-22T14:01:53;99762.78;;;18.35;50.88
64644;BME280;51056;50.330;7.914;2023-04-22T14:04:57;99761.72;;;18.28;52.72
64644;BME280;51056;50.330;7.914;2023-04-22T14:08:03;99757.72;;;18.15;49.79
64644;BME280;51056;50.330;7.914;2023-04-22T14:11:07;99762.78;;;18.08;48.43
64644;BME280;51056;50.330;7.914;2023-04-22T14:14:11;99758.78;;;18.04;48.24
64644;BME280;51056;50.330;7.914;2023-04-22T14:17:15;99755.84;;;18.07;48.99
64644;BME280;51056;50.330;7.914;2023-04-22T14:20:23;99760.97;;;18.08;49.59
64644;BME280;51056;50.330;7.914;2023-04-22T14:23:30;99762.72;;;18.18;49.64
64644;BME280;51056;50.330;7.914;2023-04-22T14:26:33;99759.56;;;18.14;49.73
64644;BME280;51056;50.330;7.914;2023-04-22T14:29:36;99761.19;;;18.15;49.26
64644;BME280;51056;50.330;7.914;2023-04-22T14:32:39;99759.56;;;18.14;49.08
64644;BME280;51056;50.330;7.914;2023-04-22T14:35:45;99769.13;;;18.15;49.70
64644;BME280;51056;50.330;7.914;2023-04-22T14:38:49;99766.78;;;18.12;49.80
64644;BME280;51056;50.330;7.914;2023-04-22T14:41:52;99776.72;;;18.10;49.92
64644;BME280;51056;50.330;7.914;2023-04-22T14:44:56;99770.19;;;18.04;49.91
64644;BME280;51056;50.330;7.914;2023-04-22T14:47:59;99769.25;;;17.96;50.39
64644;BME280;51056;50.330;7.914;2023-04-22T14:51:02;99766.59;;;17.96;50.40
64644;BME280;51056;50.330;7.914;2023-04-22T14:54:05;99766.59;;;17.96;50.88
64644;BME280;51056;50.330;7.914;2023-04-22T14:57:09;99768.28;;;17.97;51.93
64644;BME280;51056;50.330;7.914;2023-04-22T15:00:13;99766.22;;;17.91;52.25
64644;BME280;51056;50.330;7.914;2023-04-22T15:03:17;99761.75;;;17.91;52.04
64644;BME280;51056;50.330;7.914;2023-04-22T15:06:21;99764.41;;;17.91;54.36
64644;BME280;51056;50.330;7.914;2023-04-22T15:09:24;99761.22;;;17.87;54.58
64644;BME280;51056;50.330;7.914;2023-04-22T15:12:27;99767.75;;;17.83;53.22
64644;BME280;51056;50.330;7.914;2023-04-22T15:15:31;99763.63;;;17.71;51.61
64644;BME280;51056;50.330;7.914;2023-04-22T15:18:34;99766.53;;;17.68;51.16
64644;BME280;51056;50.330;7.914;2023-04-22T15:21:37;99762.22;;;17.67;50.99
64644;BME280;51056;50.330;7.914;2023-04-22T15:24:41;99763.03;;;17.67;51.13
64644;BME280;51056;50.330;7.914;2023-04-22T15:27:44;99764.19;;;17.65;51.08
64644;BME280;51056;50.330;7.914;2023-04-22T15:30:46;99758.31;;;17.71;51.44
64644;BME280;51056;50.330;7.914;2023-04-22T15:33:51;99755.81;;;17.70;51.35
64644;BME280;51056;50.330;7.914;2023-04-22T15:36:54;99763.03;;;17.67;51.69
64644;BME280;51056;50.330;7.914;2023-04-22T15:39:58;99757.09;;;17.65;51.71
64644;BME280;51056;50.330;7.914;2023-04-22T15:43:00;99756.94;;;17.67;51.39
64644;BME280;51056;50.330;7.914;2023-04-22T15:49:35;99749.53;;;17.80;51.44
64644;BME280;51056;50.330;7.914;2023-04-22T15:52:39;99753.81;;;17.91;51.78
64644;BME280;51056;50.330;7.914;2023-04-22T15:55:42;99749.34;;;17.92;51.67
64644;BME280;51056;50.330;7.914;2023-04-22T15:58:45;99742.41;;;17.91;51.47
64644;BME280;51056;50.330;7.914;2023-04-22T16:01:48;99741.25;;;17.93;51.64
64644;BME280;51056;50.330;7.914;2023-04-22T16:04:51;99746.25;;;17.96;51.43
64644;BME280;51056;50.330;7.914;2023-04-22T16:07:54;99742.75;;;18.05;51.65
64644;BME280;51056;50.330;7.914;2023-04-22T16:10:58;99739.66;;;18.10;51.53
64644;BME280;51056;50.330;7.914;2023-04-22T16:14:01;99750.06;;;17.94;52.05
64644;BME280;51056;50.330;7.914;2023-04-22T16:17:05;99747.00;;;17.88;52.54
64644;BME280;51056;50.330;7.914;2023-04-22T16:20:10;99749.41;;;17.82;53.19
64644;BME280;51056;50.330;7.914;2023-04-22T16:23:13;99752.75;;;17.74;52.98
64644;BME280;51056;50.330;7.914;2023-04-22T16:26:17;99750.69;;;17.78;53.07
64644;BME280;51056;50.330;7.914;2023-04-22T16:29:20;99752.50;;;17.77;53.25
64644;BME280;51056;50.330;7.914;2023-04-22T16:32:23;99756.94;;;17.77;53.46
64644;BME280;51056;50.330;7.914;2023-04-22T16:35:26;99749.53;;;17.71;53.17
64644;BME280;51056;50.330;7.914;2023-04-22T16:38:30;99738.84;;;17.72;53.15
64644;BME280;51056;50.330;7.914;2023-04-22T16:41:33;99734.38;;;17.73;53.58
64644;BME280;51056;50.330;7.914;2023-04-22T16:44:36;99736.06;;;17.64;53.85
64644;BME280;51056;50.330;7.914;2023-04-22T16:47:39;99746.06;;;17.70;54.23
64644;BME280;51056;50.330;7.914;2023-04-22T16:50:42;99741.34;;;17.64;55.08
64644;BME280;51056;50.330;7.914;2023-04-22T16:53:44;99743.34;;;17.62;55.40
64644;BME280;51056;50.330;7.914;2023-04-22T16:56:47;99747.22;;;17.58;55.55